<?xml version="1.0" encoding="UTF-8" standalone="no" ?>
<gpx xmlns="http://www.topografix.com/GPX/1/1" xmlns:xsi="http://www.w3.org/2001/XMLSchema-instance" xsi:schemaLocation="http://www.topografix.com/GPX/1/1 http://www.topografix.com/GPX/1/1/gpx.xsd" version="1.1" creator="VisuGPX - https://www.visugpx.com">
  <metadata>
    <name>19: Bois de Faujol - plateau de Bouissac</name>
    <desc><![CDATA[19: Bois de Faujol - plateau de Bouissac]]></desc>
  </metadata>
  <wpt lat="43.83631" lon="3.12279">
    <ele>520</ele>
    <name><![CDATA[Accueil PdC Centre]]></name>
  </wpt>
  <wpt lat="43.83657" lon="3.11798">
    <ele>530.1</ele>
    <name><![CDATA[PCD]]></name>
  </wpt>
  <wpt lat="43.83852" lon="3.10886">
    <ele>545</ele>
    <name><![CDATA[SBA]]></name>
  </wpt>
  <wpt lat="43.84037" lon="3.10487">
    <ele>550</ele>
    <name><![CDATA[MDF]]></name>
  </wpt>
  <wpt lat="43.84143" lon="3.10122">
    <ele>555</ele>
    <name><![CDATA[VRA]]></name>
  </wpt>
  <wpt lat="43.8444" lon="3.0968">
    <ele>560.1</ele>
    <name><![CDATA[VRB]]></name>
  </wpt>
  <wpt lat="43.84379" lon="3.0956">
    <ele>589.9</ele>
    <name><![CDATA[BFA]]></name>
  </wpt>
  <wpt lat="43.84277" lon="3.09269">
    <ele>690.1</ele>
    <name><![CDATA[BFB]]></name>
  </wpt>
  <wpt lat="43.84101" lon="3.0918">
    <ele>715.1</ele>
    <name><![CDATA[BFC]]></name>
  </wpt>
  <wpt lat="43.83874" lon="3.09091">
    <ele>730</ele>
    <name><![CDATA[BFD]]></name>
  </wpt>
  <wpt lat="43.83525" lon="3.08601">
    <ele>750</ele>
    <name><![CDATA[BFE]]></name>
  </wpt>
  <wpt lat="43.83391" lon="3.08412">
    <ele>740.1</ele>
    <name><![CDATA[BSJ]]></name>
  </wpt>
  <wpt lat="43.8323" lon="3.08357">
    <ele>750</ele>
    <name><![CDATA[BSI]]></name>
  </wpt>
  <wpt lat="43.83098" lon="3.08409">
    <ele>760</ele>
    <name><![CDATA[RRJ]]></name>
  </wpt>
  <wpt lat="43.82725" lon="3.08268">
    <ele>730</ele>
    <name><![CDATA[SJN]]></name>
  </wpt>
  <wpt lat="43.82621" lon="3.08505">
    <ele>769.9</ele>
    <name><![CDATA[SJB]]></name>
  </wpt>
  <wpt lat="43.82673" lon="3.08642">
    <ele>774.9</ele>
    <name><![CDATA[SJA]]></name>
  </wpt>
  <wpt lat="43.82828" lon="3.09049">
    <ele>750</ele>
    <name><![CDATA[BSG]]></name>
  </wpt>
  <wpt lat="43.829" lon="3.09582">
    <ele>755</ele>
    <name><![CDATA[BSF]]></name>
  </wpt>
  <wpt lat="43.82858" lon="3.09742">
    <ele>740.1</ele>
    <name><![CDATA[BSK]]></name>
  </wpt>
  <wpt lat="43.82969" lon="3.09937">
    <ele>744.9</ele>
    <name><![CDATA[BSE]]></name>
  </wpt>
  <wpt lat="43.83291" lon="3.10429">
    <ele>725</ele>
    <name><![CDATA[BSD]]></name>
  </wpt>
  <wpt lat="43.83395" lon="3.10485">
    <ele>700</ele>
    <name><![CDATA[SBC]]></name>
  </wpt>
  <wpt lat="43.83575" lon="3.10758">
    <ele>630</ele>
    <name><![CDATA[SBB]]></name>
  </wpt>
  <trk>
    <name><![CDATA[RoTr 19 PdC]]></name>
    <trkseg>
      <trkpt lat="43.83657" lon="3.11795">
        <ele>535</ele>
        <time>2010-01-01T00:00:00Z</time>
      </trkpt>
      <trkpt lat="43.83657" lon="3.11737">
        <ele>535</ele>
        <time>2010-01-01T00:01:15Z</time>
      </trkpt>
      <trkpt lat="43.83653" lon="3.11697">
        <ele>538</ele>
        <time>2010-01-01T00:02:08Z</time>
      </trkpt>
      <trkpt lat="43.83668" lon="3.11564">
        <ele>543</ele>
        <time>2010-01-01T00:05:04Z</time>
      </trkpt>
      <trkpt lat="43.83684" lon="3.11478">
        <ele>549</ele>
        <time>2010-01-01T00:06:58Z</time>
      </trkpt>
      <trkpt lat="43.83773" lon="3.11139">
        <ele>558</ele>
        <time>2010-01-01T00:14:48Z</time>
      </trkpt>
      <trkpt lat="43.83772" lon="3.11082">
        <ele>561</ele>
        <time>2010-01-01T00:16:02Z</time>
      </trkpt>
      <trkpt lat="43.83821" lon="3.10925">
        <ele>554</ele>
        <time>2010-01-01T00:19:44Z</time>
      </trkpt>
      <trkpt lat="43.83851" lon="3.10883">
        <ele>555</ele>
        <time>2010-01-01T00:21:01Z</time>
      </trkpt>
      <trkpt lat="43.83853" lon="3.10881">
        <ele>555</ele>
        <time>2010-01-01T00:21:06Z</time>
      </trkpt>
      <trkpt lat="43.83897" lon="3.10809">
        <ele>556</ele>
        <time>2010-01-01T00:23:08Z</time>
      </trkpt>
      <trkpt lat="43.83932" lon="3.10747">
        <ele>558</ele>
        <time>2010-01-01T00:24:51Z</time>
      </trkpt>
      <trkpt lat="43.8405" lon="3.10519">
        <ele>564</ele>
        <time>2010-01-01T00:30:56Z</time>
      </trkpt>
      <trkpt lat="43.84048" lon="3.10503">
        <ele>563</ele>
        <time>2010-01-01T00:31:17Z</time>
      </trkpt>
      <trkpt lat="43.84038" lon="3.10488">
        <ele>564</ele>
        <time>2010-01-01T00:31:44Z</time>
      </trkpt>
      <trkpt lat="43.84037" lon="3.10486">
        <ele>564</ele>
        <time>2010-01-01T00:31:47Z</time>
      </trkpt>
      <trkpt lat="43.84042" lon="3.1046">
        <ele>563</ele>
        <time>2010-01-01T00:32:22Z</time>
      </trkpt>
      <trkpt lat="43.8406" lon="3.10424">
        <ele>561</ele>
        <time>2010-01-01T00:33:19Z</time>
      </trkpt>
      <trkpt lat="43.84085" lon="3.10353">
        <ele>563</ele>
        <time>2010-01-01T00:35:01Z</time>
      </trkpt>
      <trkpt lat="43.84134" lon="3.1015">
        <ele>575</ele>
        <time>2010-01-01T00:39:39Z</time>
      </trkpt>
      <trkpt lat="43.84148" lon="3.10129">
        <ele>573</ele>
        <time>2010-01-01T00:40:16Z</time>
      </trkpt>
      <trkpt lat="43.84149" lon="3.10122">
        <ele>573</ele>
        <time>2010-01-01T00:40:25Z</time>
      </trkpt>
      <trkpt lat="43.84197" lon="3.09965">
        <ele>579</ele>
        <time>2010-01-01T00:44:07Z</time>
      </trkpt>
      <trkpt lat="43.84312" lon="3.0982">
        <ele>577</ele>
        <time>2010-01-01T00:48:48Z</time>
      </trkpt>
      <trkpt lat="43.84407" lon="3.09739">
        <ele>578</ele>
        <time>2010-01-01T00:52:09Z</time>
      </trkpt>
      <trkpt lat="43.84438" lon="3.09683">
        <ele>584</ele>
        <time>2010-01-01T00:53:40Z</time>
      </trkpt>
      <trkpt lat="43.8444" lon="3.09675">
        <ele>584</ele>
        <time>2010-01-01T00:53:52Z</time>
      </trkpt>
      <trkpt lat="43.84415" lon="3.09652">
        <ele>580</ele>
        <time>2010-01-01T00:54:46Z</time>
      </trkpt>
      <trkpt lat="43.844" lon="3.09593">
        <ele>593</ele>
        <time>2010-01-01T00:56:08Z</time>
      </trkpt>
      <trkpt lat="43.84388" lon="3.09586">
        <ele>598</ele>
        <time>2010-01-01T00:56:30Z</time>
      </trkpt>
      <trkpt lat="43.84378" lon="3.09562">
        <ele>606</ele>
        <time>2010-01-01T00:57:06Z</time>
      </trkpt>
      <trkpt lat="43.84377" lon="3.09562">
        <ele>606</ele>
        <time>2010-01-01T00:57:07Z</time>
      </trkpt>
      <trkpt lat="43.84359" lon="3.09556">
        <ele>614</ele>
        <time>2010-01-01T00:57:42Z</time>
      </trkpt>
      <trkpt lat="43.84344" lon="3.09529">
        <ele>624</ele>
        <time>2010-01-01T00:58:26Z</time>
      </trkpt>
      <trkpt lat="43.84311" lon="3.09445">
        <ele>651</ele>
        <time>2010-01-01T01:00:30Z</time>
      </trkpt>
      <trkpt lat="43.84271" lon="3.09375">
        <ele>672</ele>
        <time>2010-01-01T01:02:25Z</time>
      </trkpt>
      <trkpt lat="43.8427" lon="3.09287">
        <ele>687</ele>
        <time>2010-01-01T01:04:20Z</time>
      </trkpt>
      <trkpt lat="43.84279" lon="3.09268">
        <ele>688</ele>
        <time>2010-01-01T01:04:50Z</time>
      </trkpt>
      <trkpt lat="43.84278" lon="3.09269">
        <ele>688</ele>
        <time>2010-01-01T01:04:52Z</time>
      </trkpt>
      <trkpt lat="43.84269" lon="3.09273">
        <ele>690</ele>
        <time>2010-01-01T01:05:08Z</time>
      </trkpt>
      <trkpt lat="43.84254" lon="3.09287">
        <ele>691</ele>
        <time>2010-01-01T01:05:42Z</time>
      </trkpt>
      <trkpt lat="43.84232" lon="3.0928">
        <ele>697</ele>
        <time>2010-01-01T01:06:22Z</time>
      </trkpt>
      <trkpt lat="43.8422" lon="3.09269">
        <ele>701</ele>
        <time>2010-01-01T01:06:48Z</time>
      </trkpt>
      <trkpt lat="43.84207" lon="3.09263">
        <ele>704</ele>
        <time>2010-01-01T01:07:12Z</time>
      </trkpt>
      <trkpt lat="43.84198" lon="3.09262">
        <ele>705</ele>
        <time>2010-01-01T01:07:29Z</time>
      </trkpt>
      <trkpt lat="43.84176" lon="3.0924">
        <ele>710</ele>
        <time>2010-01-01T01:08:18Z</time>
      </trkpt>
      <trkpt lat="43.84164" lon="3.09238">
        <ele>711</ele>
        <time>2010-01-01T01:08:40Z</time>
      </trkpt>
      <trkpt lat="43.84147" lon="3.09219">
        <ele>712</ele>
        <time>2010-01-01T01:09:20Z</time>
      </trkpt>
      <trkpt lat="43.84127" lon="3.09185">
        <ele>711</ele>
        <time>2010-01-01T01:10:17Z</time>
      </trkpt>
      <trkpt lat="43.84118" lon="3.09178">
        <ele>711</ele>
        <time>2010-01-01T01:10:36Z</time>
      </trkpt>
      <trkpt lat="43.84102" lon="3.09178">
        <ele>712</ele>
        <time>2010-01-01T01:11:04Z</time>
      </trkpt>
      <trkpt lat="43.84101" lon="3.09179">
        <ele>712</ele>
        <time>2010-01-01T01:11:07Z</time>
      </trkpt>
      <trkpt lat="43.84053" lon="3.09247">
        <ele>722</ele>
        <time>2010-01-01T01:13:09Z</time>
      </trkpt>
      <trkpt lat="43.84" lon="3.09217">
        <ele>721</ele>
        <time>2010-01-01T01:14:54Z</time>
      </trkpt>
      <trkpt lat="43.8398" lon="3.09193">
        <ele>720</ele>
        <time>2010-01-01T01:15:41Z</time>
      </trkpt>
      <trkpt lat="43.83967" lon="3.09153">
        <ele>721</ele>
        <time>2010-01-01T01:16:38Z</time>
      </trkpt>
      <trkpt lat="43.8394" lon="3.09138">
        <ele>723</ele>
        <time>2010-01-01T01:17:31Z</time>
      </trkpt>
      <trkpt lat="43.83926" lon="3.09106">
        <ele>726</ele>
        <time>2010-01-01T01:18:19Z</time>
      </trkpt>
      <trkpt lat="43.83895" lon="3.09081">
        <ele>728</ele>
        <time>2010-01-01T01:19:24Z</time>
      </trkpt>
      <trkpt lat="43.83877" lon="3.09087">
        <ele>727</ele>
        <time>2010-01-01T01:19:58Z</time>
      </trkpt>
      <trkpt lat="43.83873" lon="3.09085">
        <ele>727</ele>
        <time>2010-01-01T01:20:05Z</time>
      </trkpt>
      <trkpt lat="43.83843" lon="3.09003">
        <ele>725</ele>
        <time>2010-01-01T01:22:05Z</time>
      </trkpt>
      <trkpt lat="43.83825" lon="3.08967">
        <ele>724</ele>
        <time>2010-01-01T01:23:02Z</time>
      </trkpt>
      <trkpt lat="43.83816" lon="3.08912">
        <ele>725</ele>
        <time>2010-01-01T01:24:16Z</time>
      </trkpt>
      <trkpt lat="43.83815" lon="3.08911">
        <ele>725</ele>
        <time>2010-01-01T01:24:17Z</time>
      </trkpt>
      <trkpt lat="43.83778" lon="3.08882">
        <ele>727</ele>
        <time>2010-01-01T01:25:34Z</time>
      </trkpt>
      <trkpt lat="43.83746" lon="3.08786">
        <ele>727</ele>
        <time>2010-01-01T01:27:53Z</time>
      </trkpt>
      <trkpt lat="43.83695" lon="3.08738">
        <ele>729</ele>
        <time>2010-01-01T01:29:43Z</time>
      </trkpt>
      <trkpt lat="43.83679" lon="3.0871">
        <ele>730</ele>
        <time>2010-01-01T01:30:30Z</time>
      </trkpt>
      <trkpt lat="43.83588" lon="3.08641">
        <ele>738</ele>
        <time>2010-01-01T01:33:38Z</time>
      </trkpt>
      <trkpt lat="43.83584" lon="3.08638">
        <ele>738</ele>
        <time>2010-01-01T01:33:46Z</time>
      </trkpt>
      <trkpt lat="43.83534" lon="3.08604">
        <ele>741</ele>
        <time>2010-01-01T01:35:25Z</time>
      </trkpt>
      <trkpt lat="43.83495" lon="3.08507">
        <ele>749</ele>
        <time>2010-01-01T01:37:49Z</time>
      </trkpt>
      <trkpt lat="43.83454" lon="3.08476">
        <ele>748</ele>
        <time>2010-01-01T01:39:14Z</time>
      </trkpt>
      <trkpt lat="43.83422" lon="3.08465">
        <ele>747</ele>
        <time>2010-01-01T01:40:14Z</time>
      </trkpt>
      <trkpt lat="43.83395" lon="3.08432">
        <ele>743</ele>
        <time>2010-01-01T01:41:18Z</time>
      </trkpt>
      <trkpt lat="43.83393" lon="3.08432">
        <ele>743</ele>
        <time>2010-01-01T01:41:22Z</time>
      </trkpt>
      <trkpt lat="43.83333" lon="3.08413">
        <ele>739</ele>
        <time>2010-01-01T01:43:14Z</time>
      </trkpt>
      <trkpt lat="43.83252" lon="3.08388">
        <ele>742</ele>
        <time>2010-01-01T01:45:42Z</time>
      </trkpt>
      <trkpt lat="43.83231" lon="3.08361">
        <ele>746</ele>
        <time>2010-01-01T01:46:35Z</time>
      </trkpt>
      <trkpt lat="43.83227" lon="3.08361">
        <ele>746</ele>
        <time>2010-01-01T01:46:41Z</time>
      </trkpt>
      <trkpt lat="43.83154" lon="3.08327">
        <ele>757</ele>
        <time>2010-01-01T01:48:59Z</time>
      </trkpt>
      <trkpt lat="43.83136" lon="3.08336">
        <ele>759</ele>
        <time>2010-01-01T01:49:35Z</time>
      </trkpt>
      <trkpt lat="43.83094" lon="3.08408">
        <ele>760</ele>
        <time>2010-01-01T01:51:35Z</time>
      </trkpt>
      <trkpt lat="43.83091" lon="3.08408">
        <ele>760</ele>
        <time>2010-01-01T01:51:41Z</time>
      </trkpt>
      <trkpt lat="43.83051" lon="3.08478">
        <ele>763</ele>
        <time>2010-01-01T01:53:36Z</time>
      </trkpt>
      <trkpt lat="43.82999" lon="3.08529">
        <ele>764</ele>
        <time>2010-01-01T01:55:33Z</time>
      </trkpt>
      <trkpt lat="43.82944" lon="3.0848">
        <ele>755</ele>
        <time>2010-01-01T01:57:30Z</time>
      </trkpt>
      <trkpt lat="43.82864" lon="3.08449">
        <ele>744</ele>
        <time>2010-01-01T02:00:01Z</time>
      </trkpt>
      <trkpt lat="43.82811" lon="3.08442">
        <ele>741</ele>
        <time>2010-01-01T02:01:35Z</time>
      </trkpt>
      <trkpt lat="43.82788" lon="3.08401">
        <ele>739</ele>
        <time>2010-01-01T02:02:43Z</time>
      </trkpt>
      <trkpt lat="43.8276" lon="3.08303">
        <ele>731</ele>
        <time>2010-01-01T02:04:59Z</time>
      </trkpt>
      <trkpt lat="43.8273" lon="3.08299">
        <ele>729</ele>
        <time>2010-01-01T02:05:54Z</time>
      </trkpt>
      <trkpt lat="43.82725" lon="3.08267">
        <ele>726</ele>
        <time>2010-01-01T02:06:36Z</time>
      </trkpt>
      <trkpt lat="43.82731" lon="3.08295">
        <ele>728</ele>
        <time>2010-01-01T02:07:14Z</time>
      </trkpt>
      <trkpt lat="43.82717" lon="3.08367">
        <ele>736</ele>
        <time>2010-01-01T02:08:50Z</time>
      </trkpt>
      <trkpt lat="43.82677" lon="3.08415">
        <ele>746</ele>
        <time>2010-01-01T02:10:26Z</time>
      </trkpt>
      <trkpt lat="43.82629" lon="3.08489">
        <ele>758</ele>
        <time>2010-01-01T02:12:35Z</time>
      </trkpt>
      <trkpt lat="43.82624" lon="3.085">
        <ele>761</ele>
        <time>2010-01-01T02:12:52Z</time>
      </trkpt>
      <trkpt lat="43.82624" lon="3.08501">
        <ele>761</ele>
        <time>2010-01-01T02:12:54Z</time>
      </trkpt>
      <trkpt lat="43.82624" lon="3.08535">
        <ele>765</ele>
        <time>2010-01-01T02:13:38Z</time>
      </trkpt>
      <trkpt lat="43.82632" lon="3.08556">
        <ele>768</ele>
        <time>2010-01-01T02:14:08Z</time>
      </trkpt>
      <trkpt lat="43.82652" lon="3.08586">
        <ele>771</ele>
        <time>2010-01-01T02:15:02Z</time>
      </trkpt>
      <trkpt lat="43.82669" lon="3.0863">
        <ele>772</ele>
        <time>2010-01-01T02:16:06Z</time>
      </trkpt>
      <trkpt lat="43.82674" lon="3.08636">
        <ele>772</ele>
        <time>2010-01-01T02:16:19Z</time>
      </trkpt>
      <trkpt lat="43.82676" lon="3.08638">
        <ele>772</ele>
        <time>2010-01-01T02:16:23Z</time>
      </trkpt>
      <trkpt lat="43.82738" lon="3.08713">
        <ele>769</ele>
        <time>2010-01-01T02:18:51Z</time>
      </trkpt>
      <trkpt lat="43.82778" lon="3.08776">
        <ele>766</ele>
        <time>2010-01-01T02:20:41Z</time>
      </trkpt>
      <trkpt lat="43.82807" lon="3.08808">
        <ele>764</ele>
        <time>2010-01-01T02:21:48Z</time>
      </trkpt>
      <trkpt lat="43.8283" lon="3.08865">
        <ele>761</ele>
        <time>2010-01-01T02:23:12Z</time>
      </trkpt>
      <trkpt lat="43.82838" lon="3.08961">
        <ele>754</ele>
        <time>2010-01-01T02:25:17Z</time>
      </trkpt>
      <trkpt lat="43.82828" lon="3.09031">
        <ele>749</ele>
        <time>2010-01-01T02:26:50Z</time>
      </trkpt>
      <trkpt lat="43.82836" lon="3.09044">
        <ele>749</ele>
        <time>2010-01-01T02:27:12Z</time>
      </trkpt>
      <trkpt lat="43.82881" lon="3.09124">
        <ele>748</ele>
        <time>2010-01-01T02:29:25Z</time>
      </trkpt>
      <trkpt lat="43.8292" lon="3.09321">
        <ele>758</ele>
        <time>2010-01-01T02:33:50Z</time>
      </trkpt>
      <trkpt lat="43.82932" lon="3.09339">
        <ele>758</ele>
        <time>2010-01-01T02:34:23Z</time>
      </trkpt>
      <trkpt lat="43.82937" lon="3.09367">
        <ele>758</ele>
        <time>2010-01-01T02:35:00Z</time>
      </trkpt>
      <trkpt lat="43.82927" lon="3.09378">
        <ele>758</ele>
        <time>2010-01-01T02:35:24Z</time>
      </trkpt>
      <trkpt lat="43.82913" lon="3.09434">
        <ele>756</ele>
        <time>2010-01-01T02:36:40Z</time>
      </trkpt>
      <trkpt lat="43.82902" lon="3.09532">
        <ele>750</ele>
        <time>2010-01-01T02:38:50Z</time>
      </trkpt>
      <trkpt lat="43.82897" lon="3.09583">
        <ele>747</ele>
        <time>2010-01-01T02:39:56Z</time>
      </trkpt>
      <trkpt lat="43.82898" lon="3.09586">
        <ele>747</ele>
        <time>2010-01-01T02:40:01Z</time>
      </trkpt>
      <trkpt lat="43.82907" lon="3.09609">
        <ele>745</ele>
        <time>2010-01-01T02:40:35Z</time>
      </trkpt>
      <trkpt lat="43.82906" lon="3.09631">
        <ele>742</ele>
        <time>2010-01-01T02:41:04Z</time>
      </trkpt>
      <trkpt lat="43.8287" lon="3.09626">
        <ele>742</ele>
        <time>2010-01-01T02:42:08Z</time>
      </trkpt>
      <trkpt lat="43.82855" lon="3.09657">
        <ele>739</ele>
        <time>2010-01-01T02:42:57Z</time>
      </trkpt>
      <trkpt lat="43.82853" lon="3.0974">
        <ele>736</ele>
        <time>2010-01-01T02:44:45Z</time>
      </trkpt>
      <trkpt lat="43.82854" lon="3.09742">
        <ele>736</ele>
        <time>2010-01-01T02:44:49Z</time>
      </trkpt>
      <trkpt lat="43.82966" lon="3.09936">
        <ele>741</ele>
        <time>2010-01-01T02:50:12Z</time>
      </trkpt>
      <trkpt lat="43.82968" lon="3.09938">
        <ele>740</ele>
        <time>2010-01-01T02:50:17Z</time>
      </trkpt>
      <trkpt lat="43.83101" lon="3.10041">
        <ele>733</ele>
        <time>2010-01-01T02:54:52Z</time>
      </trkpt>
      <trkpt lat="43.83128" lon="3.10089">
        <ele>733</ele>
        <time>2010-01-01T02:56:10Z</time>
      </trkpt>
      <trkpt lat="43.83109" lon="3.10138">
        <ele>731</ele>
        <time>2010-01-01T02:57:21Z</time>
      </trkpt>
      <trkpt lat="43.83097" lon="3.1016">
        <ele>729</ele>
        <time>2010-01-01T02:57:59Z</time>
      </trkpt>
      <trkpt lat="43.83127" lon="3.10218">
        <ele>728</ele>
        <time>2010-01-01T02:59:32Z</time>
      </trkpt>
      <trkpt lat="43.83143" lon="3.10237">
        <ele>729</ele>
        <time>2010-01-01T03:00:09Z</time>
      </trkpt>
      <trkpt lat="43.83135" lon="3.10268">
        <ele>724</ele>
        <time>2010-01-01T03:00:51Z</time>
      </trkpt>
      <trkpt lat="43.83158" lon="3.10374">
        <ele>720</ele>
        <time>2010-01-01T03:03:15Z</time>
      </trkpt>
      <trkpt lat="43.8319" lon="3.10381">
        <ele>726</ele>
        <time>2010-01-01T03:04:14Z</time>
      </trkpt>
      <trkpt lat="43.83289" lon="3.10425">
        <ele>727</ele>
        <time>2010-01-01T03:07:22Z</time>
      </trkpt>
      <trkpt lat="43.83292" lon="3.10426">
        <ele>727</ele>
        <time>2010-01-01T03:07:27Z</time>
      </trkpt>
      <trkpt lat="43.83397" lon="3.10485">
        <ele>707</ele>
        <time>2010-01-01T03:10:51Z</time>
      </trkpt>
      <trkpt lat="43.83398" lon="3.10483">
        <ele>707</ele>
        <time>2010-01-01T03:10:53Z</time>
      </trkpt>
      <trkpt lat="43.83426" lon="3.10508">
        <ele>701</ele>
        <time>2010-01-01T03:11:53Z</time>
      </trkpt>
      <trkpt lat="43.83459" lon="3.10545">
        <ele>692</ele>
        <time>2010-01-01T03:13:11Z</time>
      </trkpt>
      <trkpt lat="43.83472" lon="3.10588">
        <ele>683</ele>
        <time>2010-01-01T03:14:11Z</time>
      </trkpt>
      <trkpt lat="43.83492" lon="3.10611">
        <ele>676</ele>
        <time>2010-01-01T03:14:57Z</time>
      </trkpt>
      <trkpt lat="43.83499" lon="3.10661">
        <ele>669</ele>
        <time>2010-01-01T03:16:04Z</time>
      </trkpt>
      <trkpt lat="43.83575" lon="3.10758">
        <ele>642</ele>
        <time>2010-01-01T03:19:10Z</time>
      </trkpt>
      <trkpt lat="43.83576" lon="3.1076">
        <ele>642</ele>
        <time>2010-01-01T03:19:12Z</time>
      </trkpt>
      <trkpt lat="43.83611" lon="3.10793">
        <ele>633</ele>
        <time>2010-01-01T03:20:30Z</time>
      </trkpt>
      <trkpt lat="43.83674" lon="3.10849">
        <ele>610</ele>
        <time>2010-01-01T03:22:44Z</time>
      </trkpt>
      <trkpt lat="43.83686" lon="3.1087">
        <ele>609</ele>
        <time>2010-01-01T03:23:19Z</time>
      </trkpt>
      <trkpt lat="43.83701" lon="3.10868">
        <ele>603</ele>
        <time>2010-01-01T03:23:45Z</time>
      </trkpt>
      <trkpt lat="43.83717" lon="3.10846">
        <ele>595</ele>
        <time>2010-01-01T03:24:27Z</time>
      </trkpt>
      <trkpt lat="43.83758" lon="3.10871">
        <ele>581</ele>
        <time>2010-01-01T03:25:47Z</time>
      </trkpt>
      <trkpt lat="43.83784" lon="3.10866">
        <ele>573</ele>
        <time>2010-01-01T03:26:35Z</time>
      </trkpt>
      <trkpt lat="43.83816" lon="3.1088">
        <ele>561</ele>
        <time>2010-01-01T03:27:36Z</time>
      </trkpt>
      <trkpt lat="43.8385" lon="3.1088">
        <ele>555</ele>
        <time>2010-01-01T03:28:38Z</time>
      </trkpt>
      <trkpt lat="43.83851" lon="3.10882">
        <ele>555</ele>
        <time>2010-01-01T03:28:41Z</time>
      </trkpt>
      <trkpt lat="43.83821" lon="3.10926">
        <ele>554</ele>
        <time>2010-01-01T03:29:59Z</time>
      </trkpt>
      <trkpt lat="43.83772" lon="3.11081">
        <ele>561</ele>
        <time>2010-01-01T03:33:39Z</time>
      </trkpt>
      <trkpt lat="43.83773" lon="3.11137">
        <ele>558</ele>
        <time>2010-01-01T03:34:52Z</time>
      </trkpt>
      <trkpt lat="43.8373" lon="3.11301">
        <ele>551</ele>
        <time>2010-01-01T03:38:40Z</time>
      </trkpt>
      <trkpt lat="43.83684" lon="3.11474">
        <ele>549</ele>
        <time>2010-01-01T03:42:39Z</time>
      </trkpt>
      <trkpt lat="43.8367" lon="3.11549">
        <ele>544</ele>
        <time>2010-01-01T03:44:20Z</time>
      </trkpt>
      <trkpt lat="43.83653" lon="3.11697">
        <ele>538</ele>
        <time>2010-01-01T03:47:34Z</time>
      </trkpt>
      <trkpt lat="43.83657" lon="3.11737">
        <ele>535</ele>
        <time>2010-01-01T03:48:27Z</time>
      </trkpt>
      <trkpt lat="43.83657" lon="3.11796">
        <ele>535</ele>
        <time>2010-01-01T03:49:43Z</time>
      </trkpt>
    </trkseg>
  </trk>
</gpx>